createdAt,value
2022-08-20T07:23:56.043Z,2424.00
2022-08-20T07:24:56.034Z,2548.00
2022-08-20T07:25:56.007Z,2684.00
2022-08-20T07:26:56.990Z,2712.00
2022-08-20T07:27:55.964Z,2848.00
2022-08-20T07:28:55.951Z,2976.00
2022-08-20T07:29:55.989Z,3224.00
2022-08-20T07:30:57.617Z,3476.00
2022-08-20T07:31:55.948Z,3616.00
2022-08-20T07:32:56.775Z,3784.00
2022-08-20T07:33:55.882Z,3816.00
2022-08-20T07:34:57.229Z,3904.00
2022-08-20T07:35:55.876Z,4108.00
2022-08-20T07:36:55.906Z,4352.00
2022-08-20T07:37:56.191Z,4404.00
2022-08-20T07:38:56.894Z,4316.00
2022-08-20T07:39:55.888Z,4096.00
2022-08-20T07:40:56.638Z,3876.00
2022-08-20T07:41:56.589Z,3412.00
2022-08-20T07:42:55.935Z,2988.00
2022-08-20T07:43:56.169Z,2904.00
2022-08-20T07:44:56.640Z,2924.00
2022-08-20T07:45:58.834Z,2884.00
2022-08-20T07:46:56.174Z,2760.00
2022-08-20T07:47:55.721Z,2732.00
2022-08-20T07:48:55.716Z,2848.00
2022-08-20T07:49:55.698Z,3060.00
2022-08-20T07:50:55.690Z,3296.00
2022-08-20T07:51:55.694Z,3488.00
2022-08-20T07:52:55.832Z,3460.00
2022-08-20T07:53:55.666Z,3456.00
2022-08-20T07:54:55.637Z,3432.00
2022-08-20T07:55:58.809Z,3692.00
2022-08-20T07:56:55.644Z,3736.00
2022-08-20T07:57:56.149Z,3852.00
2022-08-20T07:58:55.721Z,4024.00
2022-08-20T07:59:55.581Z,4228.00
2022-08-20T08:00:55.611Z,4656.00
2022-08-20T08:01:55.572Z,4924.00
2022-08-20T08:02:56.417Z,5040.00
2022-08-20T08:03:55.542Z,5028.00
2022-08-20T08:04:55.535Z,4948.00
2022-08-20T08:05:55.526Z,4940.00
2022-08-20T08:06:55.517Z,4948.00
2022-08-20T08:07:55.542Z,4916.00
2022-08-20T08:08:55.497Z,4816.00
2022-08-20T08:09:55.504Z,4840.00
2022-08-20T08:10:55.468Z,4936.00
2022-08-20T08:11:55.463Z,5048.00
2022-08-20T08:12:55.556Z,5464.00
2022-08-20T08:13:55.443Z,5640.00
2022-08-20T08:14:55.710Z,5560.00
2022-08-20T08:15:55.434Z,5460.00
2022-08-20T08:16:58.151Z,5556.00
2022-08-20T08:17:55.417Z,5768.00
2022-08-20T08:18:56.465Z,5780.00
2022-08-20T08:20:02.144Z,5600.00
2022-08-20T08:20:55.361Z,5556.00
2022-08-20T08:21:56.165Z,5520.00
2022-08-20T08:22:55.442Z,5472.00
2022-08-20T08:23:55.345Z,5348.00
2022-08-20T08:24:56.874Z,5360.00
2022-08-20T08:25:55.348Z,4952.00
2022-08-20T08:26:55.290Z,4860.00
2022-08-20T08:27:55.345Z,4948.00
2022-08-20T08:28:55.275Z,5032.00
2022-08-20T08:29:55.695Z,4952.00
2022-08-20T08:30:55.270Z,4608.00
2022-08-20T08:31:55.253Z,4468.00
2022-08-20T08:32:55.324Z,4632.00
2022-08-20T08:33:55.232Z,4900.00
2022-08-20T08:34:55.203Z,5196.00
2022-08-20T08:35:55.218Z,5300.00
2022-08-20T08:36:55.220Z,5244.00
2022-08-20T08:37:55.188Z,5352.00
2022-08-20T08:38:55.168Z,5172.00
2022-08-20T08:39:55.266Z,4808.00
2022-08-20T08:40:57.583Z,4556.00
2022-08-20T08:41:56.134Z,4308.00
2022-08-20T08:42:55.367Z,4040.00
2022-08-20T08:43:55.107Z,3724.00
2022-08-20T08:44:55.135Z,3312.00
2022-08-20T08:45:55.087Z,2940.00
2022-08-20T08:46:55.099Z,2656.00
2022-08-20T08:47:55.062Z,2488.00
2022-08-20T08:48:57.128Z,2424.00
2022-08-20T08:49:55.037Z,2420.00
2022-08-20T08:50:55.023Z,2380.00
2022-08-20T08:51:55.213Z,2368.00
2022-08-20T08:52:55.067Z,2352.00
2022-08-20T08:53:54.997Z,2552.00
2022-08-20T08:54:54.986Z,2760.00
2022-08-20T08:55:54.972Z,2724.00
2022-08-20T08:56:54.968Z,2604.00
2022-08-20T08:57:55.195Z,2632.00
2022-08-20T08:58:55.677Z,2556.00
2022-08-20T09:00:03.512Z,2580.00
2022-08-20T09:00:57.581Z,2308.00
2022-08-20T09:01:57.527Z,2416.00
2022-08-20T09:02:55.089Z,2476.00
2022-08-20T09:03:54.924Z,2452.00
2022-08-20T09:04:55.653Z,2404.00
2022-08-20T09:05:54.873Z,2388.00
2022-08-20T09:06:55.667Z,2592.00
2022-08-20T09:07:54.846Z,2856.00
2022-08-20T09:08:54.862Z,2972.00
2022-08-20T09:09:54.833Z,2768.00
2022-08-20T09:10:54.824Z,2612.00
2022-08-20T09:11:54.816Z,2916.00
2022-08-20T09:12:54.813Z,3108.00
2022-08-20T09:13:57.652Z,3224.00
2022-08-20T09:14:54.801Z,3156.00
2022-08-20T09:15:54.789Z,3100.00
2022-08-20T09:16:54.751Z,2924.00
2022-08-20T09:18:01.685Z,2960.00
2022-08-20T09:18:54.729Z,3276.00
2022-08-20T09:19:54.724Z,3604.00
2022-08-20T09:20:57.666Z,3632.00
2022-08-20T09:21:54.725Z,3272.00
2022-08-20T09:22:54.685Z,3264.00
2022-08-20T09:23:55.685Z,3400.00
2022-08-20T09:24:54.700Z,3800.00
2022-08-20T09:25:54.658Z,4116.00
2022-08-20T09:26:54.645Z,4332.00
2022-08-20T09:27:55.154Z,4288.00
2022-08-20T09:28:55.668Z,4152.00
2022-08-20T09:29:54.642Z,3700.00
2022-08-20T09:30:54.609Z,4136.00
2022-08-20T09:31:54.617Z,3236.00
2022-08-20T09:32:54.573Z,3488.00
2022-08-20T09:33:57.162Z,4020.00
2022-08-20T09:34:54.566Z,4004.00
2022-08-20T09:35:55.156Z,4112.00
2022-08-20T09:36:54.573Z,4160.00
2022-08-20T09:37:54.548Z,4164.00
2022-08-20T09:38:54.518Z,4224.00
2022-08-20T09:39:54.583Z,4272.00
2022-08-20T09:40:54.493Z,4292.00
2022-08-20T09:41:54.485Z,4284.00
2022-08-20T09:42:54.619Z,4368.00
2022-08-20T09:43:54.688Z,4496.00
2022-08-20T09:44:55.169Z,3584.00
2022-08-20T09:45:54.437Z,4692.00
2022-08-20T09:46:54.443Z,4732.00
2022-08-20T09:47:56.490Z,4672.00
2022-08-20T09:48:55.430Z,4660.00
2022-08-20T09:49:54.401Z,4684.00
2022-08-20T09:50:57.169Z,4732.00
2022-08-20T09:51:54.389Z,4852.00
2022-08-20T09:52:54.685Z,4552.00
2022-08-20T09:53:54.379Z,4656.00
2022-08-20T09:54:54.373Z,5428.00
2022-08-20T09:55:57.164Z,5672.00
2022-08-20T09:56:55.162Z,5804.00
2022-08-20T09:58:01.169Z,6360.00
2022-08-20T09:58:54.333Z,6928.00
2022-08-20T09:59:54.284Z,7304.00
2022-08-20T10:00:54.283Z,7916.00
2022-08-20T10:01:55.233Z,8352.00
2022-08-20T10:02:54.258Z,8140.00
2022-08-20T10:04:01.191Z,8040.00
2022-08-20T10:05:01.800Z,8292.00
2022-08-20T10:05:54.258Z,7924.00
2022-08-20T10:06:55.216Z,7568.00
2022-08-20T10:07:55.171Z,6608.00
2022-08-20T10:08:55.159Z,6216.00
2022-08-20T10:09:55.177Z,6260.00
2022-08-20T10:10:54.168Z,4896.00
2022-08-20T10:11:54.177Z,5220.00
2022-08-20T10:13:00.668Z,5116.00
2022-08-20T10:14:00.667Z,5116.00
2022-08-20T10:14:54.120Z,4224.00
2022-08-20T10:15:54.116Z,4280.00
2022-08-20T10:16:54.191Z,4052.00
2022-08-20T10:17:56.770Z,3852.00
2022-08-20T10:18:54.676Z,3916.00
2022-08-20T10:19:54.063Z,4132.00
2022-08-20T10:20:54.209Z,4388.00
2022-08-20T10:21:54.672Z,4620.00
2022-08-20T10:22:54.066Z,4664.00
2022-08-20T10:23:54.668Z,4668.00
2022-08-20T10:24:54.686Z,4772.00
2022-08-20T10:25:54.000Z,4980.00
2022-08-20T10:26:54.012Z,4964.00
2022-08-20T10:27:54.209Z,4668.00
2022-08-20T10:28:53.978Z,4560.00
2022-08-20T10:29:56.674Z,4492.00
2022-08-20T10:30:53.989Z,4132.00
2022-08-20T10:31:54.214Z,3992.00
2022-08-20T10:32:53.934Z,3972.00
2022-08-20T10:33:56.671Z,3792.00
2022-08-20T10:34:53.911Z,3668.00
2022-08-20T10:35:59.917Z,3616.00
2022-08-20T10:36:55.201Z,3640.00
2022-08-20T10:37:53.876Z,3676.00
2022-08-20T10:38:53.897Z,3684.00
2022-08-20T10:39:56.742Z,3380.00
2022-08-20T10:40:56.667Z,3112.00
2022-08-20T10:41:53.839Z,3000.00
2022-08-20T10:42:53.835Z,2984.00
2022-08-20T10:43:53.835Z,3108.00
2022-08-20T10:44:53.802Z,3256.00
2022-08-20T10:45:53.836Z,3364.00
2022-08-20T10:46:57.078Z,3580.00
2022-08-20T10:47:53.804Z,3832.00
2022-08-20T10:48:53.790Z,4084.00
2022-08-20T10:49:53.753Z,4420.00
2022-08-20T10:50:53.735Z,5052.00
2022-08-20T10:51:54.696Z,5428.00
2022-08-20T10:52:54.706Z,5940.00
2022-08-20T10:53:53.711Z,5848.00
2022-08-20T10:54:53.714Z,5948.00
2022-08-20T10:55:53.714Z,5944.00
2022-08-20T10:56:53.678Z,6156.00
2022-08-20T10:57:54.182Z,6460.00
2022-08-20T10:58:53.657Z,6924.00
2022-08-20T10:59:54.472Z,7176.00
2022-08-20T11:00:53.649Z,7224.00
2022-08-20T11:01:53.680Z,7252.00
2022-08-20T11:02:54.179Z,7076.00
2022-08-20T11:03:54.668Z,6872.00
2022-08-20T11:04:53.602Z,6900.00
2022-08-20T11:05:53.625Z,6840.00
2022-08-20T11:06:53.570Z,6628.00
2022-08-20T11:07:56.215Z,6008.00
2022-08-20T11:08:53.559Z,5288.00
2022-08-20T11:10:00.215Z,4928.00
2022-08-20T11:10:53.525Z,4960.00
2022-08-20T11:11:53.737Z,5512.00
2022-08-20T11:12:54.179Z,6548.00
2022-08-20T11:13:53.491Z,7212.00
2022-08-20T11:14:53.482Z,7228.00
2022-08-20T11:15:56.205Z,6800.00
2022-08-20T11:16:56.183Z,6988.00
2022-08-20T11:17:53.475Z,6620.00
2022-08-20T11:18:54.187Z,5652.00
2022-08-20T11:19:53.501Z,5304.00
2022-08-20T11:20:54.175Z,4240.00
2022-08-20T11:22:00.195Z,4256.00
2022-08-20T11:22:56.682Z,4704.00
2022-08-20T11:23:53.385Z,4408.00
2022-08-20T11:24:54.184Z,3716.00
2022-08-20T11:25:53.368Z,3660.00
2022-08-20T11:26:53.358Z,3928.00
2022-08-20T11:27:54.221Z,2896.00
2022-08-20T11:28:54.192Z,2936.00
2022-08-20T11:29:53.342Z,3164.00
2022-08-20T11:30:56.188Z,3452.00
2022-08-20T11:31:54.185Z,3980.00
2022-08-20T11:32:53.299Z,3764.00
2022-08-20T11:33:53.302Z,3732.00
2022-08-20T11:34:53.279Z,3876.00
2022-08-20T11:36:08.205Z,3860.00
2022-08-20T11:36:54.188Z,3908.00
2022-08-20T11:37:56.389Z,4100.00
2022-08-20T11:38:53.257Z,4188.00
2022-08-20T11:39:53.271Z,4396.00
2022-08-20T11:40:54.228Z,4660.00
2022-08-20T11:41:54.902Z,4904.00
2022-08-20T11:43:13.785Z,5056.00
2022-08-20T11:44:17.433Z,5196.00
2022-08-20T11:44:54.184Z,5160.00
2022-08-20T11:45:53.177Z,5220.00
2022-08-20T11:46:53.695Z,5236.00
2022-08-20T11:47:53.126Z,5176.00
2022-08-20T11:48:59.695Z,4968.00
2022-08-20T11:49:53.142Z,4676.00
2022-08-20T11:50:53.113Z,4600.00
2022-08-20T11:51:59.689Z,4568.00
2022-08-20T11:53:01.581Z,4524.00
2022-08-20T11:53:55.691Z,4340.00
2022-08-20T11:54:54.855Z,3796.00
2022-08-20T11:55:53.047Z,3240.00
2022-08-20T11:56:53.023Z,3156.00
2022-08-20T11:57:53.059Z,3136.00
2022-08-20T11:58:53.007Z,3264.00
2022-08-20T11:59:53.023Z,3456.00
2022-08-20T12:00:52.979Z,3732.00
2022-08-20T12:02:02.730Z,3908.00
2022-08-20T12:02:53.121Z,3876.00
2022-08-20T12:03:52.954Z,3656.00
2022-08-20T12:04:52.938Z,3456.00
2022-08-20T12:05:52.939Z,3208.00
2022-08-20T12:06:52.916Z,2768.00
2022-08-20T12:07:52.933Z,2120.00
2022-08-20T12:08:52.900Z,1500.00
2022-08-20T12:09:52.882Z,1156.00
2022-08-20T12:10:52.887Z,1132.00
2022-08-20T12:11:52.871Z,1384.00
2022-08-20T12:12:52.988Z,1684.00
2022-08-20T12:13:53.702Z,1784.00
2022-08-20T12:14:52.832Z,1852.00
2022-08-20T12:15:53.849Z,2156.00
2022-08-20T12:16:53.699Z,2792.00
2022-08-20T12:17:52.823Z,3528.00
2022-08-20T12:18:53.692Z,4368.00
2022-08-20T12:19:52.777Z,5268.00
2022-08-20T12:20:52.773Z,6116.00
2022-08-20T12:21:53.703Z,6724.00
2022-08-20T12:22:53.274Z,6676.00
2022-08-20T12:24:00.743Z,6220.00
2022-08-20T12:24:52.718Z,5924.00
2022-08-20T12:25:52.706Z,5936.00
2022-08-20T12:26:52.726Z,5636.00
2022-08-20T12:27:53.196Z,5044.00
2022-08-20T12:28:52.697Z,4580.00
2022-08-20T12:29:53.206Z,4300.00
2022-08-20T12:30:52.714Z,4160.00
2022-08-20T12:31:53.209Z,4400.00
2022-08-20T12:32:53.266Z,5000.00
2022-08-20T12:33:52.624Z,5264.00
2022-08-20T12:34:53.209Z,5300.00
2022-08-20T12:35:55.197Z,5720.00
2022-08-20T12:36:52.731Z,5668.00
2022-08-20T12:37:52.581Z,5388.00
2022-08-20T12:38:52.573Z,5184.00
2022-08-20T12:39:52.775Z,5168.00
2022-08-20T12:40:52.556Z,7172.00
2022-08-20T12:41:53.212Z,7204.00
2022-08-20T12:42:53.209Z,7476.00
2022-08-20T12:43:55.196Z,7960.00
2022-08-20T12:44:52.515Z,8552.00
2022-08-20T12:45:52.510Z,9456.00
2022-08-20T12:46:55.213Z,7756.00
2022-08-20T12:47:52.777Z,9676.00
2022-08-20T12:48:52.477Z,9596.00
2022-08-20T12:49:52.477Z,9652.00
2022-08-20T12:50:52.471Z,9644.00
2022-08-20T12:51:52.434Z,9440.00
2022-08-20T12:52:53.271Z,8816.00
2022-08-20T12:53:52.441Z,7448.00
2022-08-20T12:54:52.393Z,5924.00
2022-08-20T12:55:52.409Z,4240.00
2022-08-20T12:56:52.378Z,3800.00
2022-08-20T12:57:52.374Z,3504.00
2022-08-20T12:58:52.386Z,3388.00
2022-08-20T12:59:52.346Z,3512.00
2022-08-20T13:00:52.347Z,3700.00
2022-08-20T13:01:52.360Z,3916.00
2022-08-20T13:02:53.256Z,4252.00
2022-08-20T13:03:52.334Z,4848.00
2022-08-20T13:04:53.352Z,6224.00
2022-08-20T13:05:52.307Z,6564.00
2022-08-20T13:06:53.208Z,8176.00
2022-08-20T13:07:52.262Z,8136.00
2022-08-20T13:08:52.240Z,6604.00
2022-08-20T13:09:52.234Z,6872.00
2022-08-20T13:10:52.241Z,5580.00
2022-08-20T13:11:52.225Z,4696.00
2022-08-20T13:12:52.260Z,4980.00
2022-08-20T13:13:52.277Z,7240.00
2022-08-20T13:14:52.179Z,4900.00
2022-08-20T13:15:52.172Z,5292.00
2022-08-20T13:16:52.160Z,5728.00
2022-08-20T13:17:52.145Z,6100.00
2022-08-20T13:18:53.742Z,6028.00
2022-08-20T13:19:52.242Z,7896.00
2022-08-20T13:21:13.120Z,8012.00
2022-08-20T13:21:55.155Z,6016.00
2022-08-20T13:22:52.839Z,6560.00
2022-08-20T13:23:52.084Z,7632.00
2022-08-20T13:24:52.076Z,8404.00
2022-08-20T13:25:52.073Z,6120.00
2022-08-20T13:26:52.058Z,7436.00
2022-08-20T13:27:54.717Z,5668.00
2022-08-20T13:28:52.020Z,7432.00
2022-08-20T13:29:55.174Z,6860.00
2022-08-20T13:30:53.025Z,6780.00
2022-08-20T13:31:52.300Z,6452.00
2022-08-20T13:32:51.973Z,4988.00
2022-08-20T13:33:54.027Z,4756.00
2022-08-20T13:34:51.946Z,7164.00
2022-08-20T13:35:53.320Z,6152.00
2022-08-20T13:36:58.711Z,5608.00
2022-08-20T13:37:51.940Z,7452.00
2022-08-20T13:38:51.919Z,5688.00
2022-08-20T13:39:52.006Z,5236.00
2022-08-20T13:40:51.895Z,5760.00
2022-08-20T13:41:51.912Z,8248.00
2022-08-20T13:42:51.883Z,6708.00
2022-08-20T13:43:51.869Z,5644.00
2022-08-20T13:44:51.873Z,5280.00
2022-08-20T13:45:52.721Z,5280.00
2022-08-20T13:46:51.855Z,5600.00
2022-08-20T13:47:52.936Z,8516.00
2022-08-20T13:48:52.714Z,5776.00
2022-08-20T13:49:54.739Z,5268.00
2022-08-20T13:50:54.727Z,5180.00
2022-08-20T13:51:52.154Z,5504.00
2022-08-20T13:52:52.245Z,6100.00
2022-08-20T13:53:51.747Z,6648.00
2022-08-20T13:54:51.788Z,6988.00
2022-08-20T13:55:51.730Z,7204.00
2022-08-20T13:56:51.721Z,7064.00
2022-08-20T13:57:51.714Z,6140.00
2022-08-20T13:58:53.194Z,5772.00
2022-08-20T13:59:52.229Z,7348.00
2022-08-20T14:00:51.672Z,7648.00
2022-08-20T14:01:51.667Z,6464.00
2022-08-20T14:02:51.656Z,7680.00
2022-08-20T14:03:51.672Z,10648.00
2022-08-20T14:04:51.633Z,10200.00
2022-08-20T14:05:51.633Z,5692.00
2022-08-20T14:06:52.225Z,5508.00
2022-08-20T14:07:53.720Z,8096.00
2022-08-20T14:08:51.574Z,8116.00
2022-08-20T14:09:51.606Z,7920.00
2022-08-20T14:10:51.933Z,7800.00
2022-08-20T14:11:51.580Z,7648.00
2022-08-20T14:12:51.544Z,7688.00
2022-08-20T14:13:51.538Z,7656.00
2022-08-20T14:14:51.541Z,7680.00
2022-08-20T14:15:51.763Z,4344.00
2022-08-20T14:16:51.501Z,7636.00
2022-08-20T14:17:52.609Z,4336.00
2022-08-20T14:18:52.963Z,6836.00
2022-08-20T14:19:51.496Z,4756.00
2022-08-20T14:20:51.489Z,7516.00
2022-08-20T14:21:52.489Z,7288.00
2022-08-20T14:22:51.495Z,7892.00
2022-08-20T14:23:52.237Z,7892.00
2022-08-20T14:24:58.230Z,3756.00
2022-08-20T14:25:51.441Z,3480.00
2022-08-20T14:26:51.401Z,3704.00
2022-08-20T14:27:51.396Z,4120.00
2022-08-20T14:28:54.742Z,4372.00
2022-08-20T14:29:51.367Z,6920.00
2022-08-20T14:30:53.164Z,4880.00
2022-08-20T14:31:52.227Z,4692.00
2022-08-20T14:32:52.227Z,4628.00
2022-08-20T14:33:52.231Z,7116.00
2022-08-20T14:34:51.343Z,4516.00
2022-08-20T14:35:51.305Z,4124.00
2022-08-20T14:36:52.241Z,3888.00
2022-08-20T14:37:51.283Z,3876.00
2022-08-20T14:38:52.841Z,4588.00
2022-08-20T14:39:51.339Z,6116.00
2022-08-20T14:40:51.247Z,5680.00
2022-08-20T14:41:51.246Z,8544.00
2022-08-20T14:42:52.414Z,6236.00
2022-08-20T14:43:51.263Z,5320.00
2022-08-20T14:44:51.280Z,4648.00
2022-08-20T14:45:51.197Z,4628.00
2022-08-20T14:46:51.190Z,4152.00
2022-08-20T14:47:53.767Z,4412.00
2022-08-20T14:48:53.303Z,4280.00
2022-08-20T14:49:51.184Z,3884.00
2022-08-20T14:50:51.743Z,3520.00
2022-08-20T14:51:51.136Z,3468.00
2022-08-20T14:52:51.150Z,3660.00
2022-08-20T14:53:51.110Z,4072.00
2022-08-20T14:54:51.127Z,4432.00
2022-08-20T14:55:51.739Z,4648.00
2022-08-20T14:56:51.079Z,4772.00
2022-08-20T14:57:51.061Z,5232.00
2022-08-20T14:58:51.072Z,5256.00
2022-08-20T14:59:51.071Z,5880.00
2022-08-20T15:00:51.049Z,6180.00
2022-08-20T15:01:51.028Z,8320.00
2022-08-20T15:02:51.273Z,8100.00
2022-08-20T15:03:51.736Z,7948.00
2022-08-20T15:04:53.883Z,7916.00
2022-08-20T15:05:51.013Z,7132.00
2022-08-20T15:06:50.973Z,6380.00
2022-08-20T15:07:51.734Z,7480.00
2022-08-20T15:08:51.747Z,5480.00
2022-08-20T15:09:52.289Z,5524.00
2022-08-20T15:10:50.945Z,5360.00
2022-08-20T15:11:50.921Z,5576.00
2022-08-20T15:12:51.739Z,5164.00
2022-08-20T15:13:50.927Z,5448.00
2022-08-20T15:14:53.744Z,6716.00
2022-08-20T15:15:51.745Z,4508.00
2022-08-20T15:16:50.867Z,4012.00
2022-08-20T15:17:50.861Z,3472.00
2022-08-20T15:18:50.863Z,3240.00
2022-08-20T15:19:54.745Z,3132.00
2022-08-20T15:20:50.823Z,3096.00
2022-08-20T15:21:50.860Z,3176.00
2022-08-20T15:22:51.741Z,3404.00
2022-08-20T15:23:52.796Z,3636.00
2022-08-20T15:24:51.490Z,3596.00
2022-08-20T15:25:51.771Z,3544.00
2022-08-20T15:26:50.754Z,3472.00
2022-08-20T15:27:50.755Z,3436.00
2022-08-20T15:28:50.767Z,3404.00
2022-08-20T15:29:50.735Z,3472.00
2022-08-20T15:30:50.773Z,3548.00
2022-08-20T15:31:50.733Z,3672.00
2022-08-20T15:32:54.886Z,3864.00
2022-08-20T15:33:50.713Z,4336.00
2022-08-20T15:34:50.677Z,5284.00
2022-08-20T15:35:50.689Z,5716.00
2022-08-20T15:36:57.249Z,4172.00
2022-08-20T15:37:50.642Z,4044.00
2022-08-20T15:38:50.651Z,3960.00
2022-08-20T15:39:50.677Z,3864.00
2022-08-20T15:40:54.318Z,4116.00
2022-08-20T15:41:51.244Z,4312.00
2022-08-20T15:42:53.328Z,3924.00
2022-08-20T15:43:50.597Z,3848.00
2022-08-20T15:44:50.592Z,3808.00
2022-08-20T15:45:50.559Z,3820.00
2022-08-20T15:46:50.554Z,3672.00
2022-08-20T15:47:50.521Z,3544.00
2022-08-20T15:48:50.556Z,3572.00
2022-08-20T15:49:50.589Z,3596.00
2022-08-20T15:50:51.561Z,3648.00
2022-08-20T15:51:50.491Z,3792.00
2022-08-20T15:52:51.304Z,5604.00
2022-08-20T15:53:50.471Z,4960.00
2022-08-20T15:54:55.131Z,4136.00
2022-08-20T15:55:51.468Z,4268.00
2022-08-20T15:56:50.462Z,4520.00
2022-08-20T15:57:50.432Z,4516.00
2022-08-20T15:58:50.441Z,5368.00
2022-08-20T15:59:50.428Z,5896.00
2022-08-20T16:00:50.434Z,5844.00
2022-08-20T16:01:50.447Z,5876.00
2022-08-20T16:02:50.404Z,6000.00
2022-08-20T16:03:50.368Z,5344.00
2022-08-20T16:04:50.360Z,5332.00
2022-08-20T16:05:50.361Z,5512.00
2022-08-20T16:06:50.341Z,5224.00
2022-08-20T16:07:50.323Z,6240.00
2022-08-20T16:08:50.318Z,6300.00
2022-08-20T16:09:50.304Z,6264.00
2022-08-20T16:10:50.297Z,6384.00
2022-08-20T16:11:50.305Z,6376.00
2022-08-20T16:12:50.316Z,6200.00
2022-08-20T16:13:50.254Z,5976.00
2022-08-20T16:14:50.260Z,5924.00
2022-08-20T16:15:50.242Z,5904.00
2022-08-20T16:16:50.229Z,5976.00
2022-08-20T16:17:52.345Z,5292.00
2022-08-20T16:18:50.203Z,4908.00
2022-08-20T16:19:50.208Z,5624.00
2022-08-20T16:20:50.183Z,3960.00
2022-08-20T16:21:50.176Z,5092.00
2022-08-20T16:22:50.266Z,3948.00
2022-08-20T16:23:50.184Z,3896.00
2022-08-20T16:24:50.153Z,4076.00
2022-08-20T16:25:50.769Z,5144.00
2022-08-20T16:26:50.118Z,3640.00
2022-08-20T16:27:50.107Z,3652.00
2022-08-20T16:28:50.096Z,3616.00
2022-08-20T16:29:53.274Z,2680.00
2022-08-20T16:30:50.089Z,2536.00
2022-08-20T16:31:50.078Z,2444.00
2022-08-20T16:32:50.287Z,2452.00
2022-08-20T16:33:50.064Z,2376.00
2022-08-20T16:34:50.759Z,2288.00
2022-08-20T16:35:51.079Z,2264.00
2022-08-20T16:37:03.644Z,2188.00
2022-08-20T16:37:51.007Z,3132.00
2022-08-20T16:38:50.022Z,2628.00
2022-08-20T16:39:50.155Z,2020.00
2022-08-20T16:40:52.763Z,1964.00
2022-08-20T16:41:49.959Z,1932.00
2022-08-20T16:42:49.960Z,1928.00
2022-08-20T16:43:49.944Z,1972.00
2022-08-20T16:44:49.927Z,2076.00
2022-08-20T16:45:51.256Z,2192.00
2022-08-20T16:46:49.915Z,2216.00
2022-08-20T16:47:49.905Z,2344.00
2022-08-20T16:48:50.760Z,2416.00
2022-08-20T16:49:49.901Z,2448.00
2022-08-20T16:50:49.877Z,2480.00
2022-08-20T16:51:52.016Z,2544.00
2022-08-20T16:52:50.858Z,2540.00
2022-08-20T16:53:50.766Z,2524.00
2022-08-20T16:54:49.842Z,2548.00
2022-08-20T16:55:49.821Z,2576.00
2022-08-20T16:56:49.800Z,2420.00
2022-08-20T16:57:50.770Z,2052.00
2022-08-20T16:58:49.777Z,1736.00
2022-08-20T16:59:50.266Z,1596.00
2022-08-20T17:00:49.803Z,1544.00
2022-08-20T17:01:50.271Z,1508.00
2022-08-20T17:02:50.354Z,1452.00
2022-08-20T17:03:50.775Z,1424.00
2022-08-20T17:04:58.679Z,1452.00
2022-08-20T17:05:50.704Z,1472.00
2022-08-20T17:06:49.691Z,1860.00
2022-08-20T17:07:51.368Z,1508.00
2022-08-20T17:08:49.912Z,1528.00
2022-08-20T17:09:49.667Z,1504.00
2022-08-20T17:10:50.671Z,1552.00
2022-08-20T17:11:49.655Z,1596.00
2022-08-20T17:12:50.339Z,1676.00
2022-08-20T17:13:49.599Z,1756.00
2022-08-20T17:14:50.668Z,1788.00
2022-08-20T17:15:50.265Z,1784.00
2022-08-20T17:16:49.589Z,1748.00
2022-08-20T17:17:49.559Z,1664.00
2022-08-20T17:18:49.550Z,1616.00
2022-08-20T17:19:49.540Z,1576.00
2022-08-20T17:20:54.790Z,1540.00
2022-08-20T17:21:49.843Z,1524.00
2022-08-20T17:22:49.530Z,1504.00
2022-08-20T17:23:56.467Z,1508.00
2022-08-20T17:24:50.484Z,1648.00
2022-08-20T17:25:49.472Z,1928.00
2022-08-20T17:26:49.480Z,2000.00
2022-08-20T17:27:49.447Z,2032.00
2022-08-20T17:28:49.446Z,1992.00
2022-08-20T17:29:50.271Z,1988.00
2022-08-20T17:30:50.488Z,1876.00
2022-08-20T17:31:49.406Z,1852.00
2022-08-20T17:32:49.402Z,1956.00
2022-08-20T17:33:50.383Z,1956.00
2022-08-20T17:34:49.373Z,1884.00
2022-08-20T17:35:49.371Z,1972.00
2022-08-20T17:36:50.405Z,2048.00
2022-08-20T17:37:49.338Z,2044.00
2022-08-20T17:38:49.329Z,1944.00
2022-08-20T17:39:49.359Z,1660.00
2022-08-20T17:40:49.353Z,1548.00
2022-08-20T17:41:49.299Z,1588.00
2022-08-20T17:42:49.300Z,1572.00
2022-08-20T17:43:50.828Z,1460.00
2022-08-20T17:44:49.259Z,1352.00
2022-08-20T17:45:49.244Z,1484.00
2022-08-20T17:46:51.795Z,1268.00
2022-08-20T17:47:49.300Z,1176.00
2022-08-20T17:48:49.217Z,1144.00
2022-08-20T17:50:01.189Z,1160.00
2022-08-20T17:50:50.215Z,1168.00
2022-08-20T17:51:49.176Z,1140.00
2022-08-20T17:52:50.277Z,1016.00
2022-08-20T17:53:49.778Z,824.00
2022-08-20T17:54:49.162Z,712.00
2022-08-20T17:55:51.789Z,712.00
2022-08-20T17:56:49.157Z,676.00
2022-08-20T17:57:49.112Z,680.00
2022-08-20T17:58:54.136Z,664.00
2022-08-20T18:00:01.193Z,636.00
2022-08-20T18:00:50.112Z,608.00
2022-08-20T18:01:49.178Z,576.00
2022-08-20T18:02:50.190Z,560.00
2022-08-20T18:03:49.076Z,556.00
2022-08-20T18:04:49.785Z,544.00
2022-08-20T18:05:49.039Z,528.00
2022-08-20T18:06:51.114Z,512.00
2022-08-20T18:07:49.034Z,508.00
2022-08-20T18:08:51.783Z,504.00
2022-08-20T18:09:49.776Z,488.00
2022-08-20T18:10:50.287Z,468.00
2022-08-20T18:11:48.970Z,448.00
2022-08-20T18:12:48.970Z,420.00
2022-08-20T18:13:48.949Z,404.00
2022-08-20T18:14:48.942Z,392.00
2022-08-20T18:15:48.931Z,384.00
2022-08-20T18:16:49.816Z,376.00
2022-08-20T18:17:48.911Z,360.00
2022-08-20T18:18:56.512Z,336.00
2022-08-20T18:19:49.892Z,308.00
2022-08-20T18:20:48.902Z,284.00
2022-08-20T18:21:50.830Z,264.00
2022-08-20T18:22:49.810Z,248.00
2022-08-20T18:23:49.867Z,232.00
2022-08-20T18:24:51.779Z,216.00
2022-08-20T18:25:48.846Z,196.00
2022-08-20T18:26:49.886Z,176.00
2022-08-20T18:27:49.819Z,164.00
2022-08-20T18:28:48.800Z,152.00
2022-08-20T18:29:48.782Z,140.00
2022-08-20T18:30:48.785Z,124.00
2022-08-20T18:31:48.781Z,120.00
2022-08-20T18:32:49.296Z,108.00
2022-08-20T18:33:48.741Z,100.00
2022-08-20T18:34:49.284Z,96.00
2022-08-20T18:35:48.722Z,88.00
2022-08-20T18:36:48.813Z,88.00
2022-08-20T18:37:51.290Z,80.00
2022-08-20T18:38:49.281Z,72.00
2022-08-20T18:39:51.345Z,64.00
2022-08-20T18:40:53.130Z,60.00
2022-08-20T18:41:49.698Z,56.00
2022-08-20T18:42:48.829Z,48.00
2022-08-20T18:43:48.650Z,44.00
2022-08-20T18:44:49.284Z,40.00
2022-08-20T18:45:48.617Z,36.00
2022-08-20T18:46:48.603Z,32.00
2022-08-20T18:47:48.596Z,28.00
2022-08-20T18:48:48.609Z,28.00
2022-08-20T18:49:48.570Z,28.00
2022-08-20T18:50:49.577Z,24.00
2022-08-20T18:51:51.284Z,20.00
2022-08-20T18:52:48.822Z,20.00
2022-08-20T18:53:51.855Z,16.00
2022-08-20T18:54:48.856Z,12.00
2022-08-20T18:55:48.508Z,16.00
2022-08-20T18:56:51.370Z,12.00
2022-08-20T18:57:51.292Z,8.00
2022-08-20T18:58:48.482Z,8.00
2022-08-20T18:59:48.472Z,8.00
2022-08-20T19:00:48.485Z,8.00
2022-08-20T19:01:48.504Z,4.00
2022-08-20T19:02:55.374Z,4.00
2022-08-20T19:03:48.451Z,4.00
2022-08-20T19:04:49.450Z,4.00
2022-08-20T19:05:48.402Z,4.00
2022-08-20T19:06:49.304Z,0.00
2022-08-20T19:07:49.305Z,4.00
2022-08-20T19:08:48.375Z,4.00
2022-08-20T19:09:48.376Z,0.00
2022-08-20T19:10:48.374Z,4.00
2022-08-20T19:11:48.332Z,4.00
2022-08-20T19:12:48.350Z,0.00
2022-08-20T19:13:49.292Z,0.00
2022-08-20T19:14:48.311Z,0.00
2022-08-20T19:15:48.293Z,0.00
2022-08-20T19:16:48.337Z,0.00
2022-08-20T19:17:48.276Z,0.00
2022-08-20T19:18:48.271Z,0.00
2022-08-20T19:19:48.790Z,0.00
2022-08-20T19:20:50.304Z,0.00
2022-08-20T19:21:48.244Z,0.00
2022-08-20T19:22:48.237Z,0.00
2022-08-20T19:23:48.223Z,0.00
2022-08-20T19:24:48.207Z,0.00
2022-08-20T19:25:50.797Z,0.00
2022-08-20T19:26:48.186Z,0.00
2022-08-20T19:27:48.156Z,0.00
2022-08-20T19:28:48.331Z,0.00
2022-08-20T19:29:48.140Z,0.00
2022-08-20T19:30:48.804Z,0.00
2022-08-20T19:31:48.113Z,0.00
2022-08-20T19:32:51.399Z,0.00
2022-08-20T19:33:48.126Z,0.00
2022-08-20T19:34:48.086Z,0.00